Time;durP1;ratioP1;P1;durP2;ratioP2;P2;SDS_P1;SDS_P2;PMS_P1;PMS_P2;Temp;Humidity;BMP_temperature;BMP_pressure;BME280_temperature;BME280_humidity;BME280_pressure;Samples;Min_cycle;Max_cycle;Signal;HPM_P1;HPM_P2
2023/04/05 00:01:24;;;;;;;7.68;3.63;;;8.50;48.00;;;;;;5053911;28;20043;-65
2023/04/05 00:03:57;;;;;;;8.90;3.80;;;8.40;48.10;;;;;;5041001;28;20129;-65
2023/04/05 00:06:30;;;;;;;7.85;4.15;;;8.40;48.20;;;;;;5032099;28;20116;-65
2023/04/05 00:09:00;;;;;;;8.60;4.15;;;8.40;48.20;;;;;;5042804;28;20072;-65
2023/04/05 00:11:31;;;;;;;9.30;4.57;;;8.40;48.10;;;;;;5049102;28;20029;-65
2023/04/05 00:14:01;;;;;;;8.70;3.88;;;8.40;48.20;;;;;;5018071;28;20466;-65
2023/04/05 00:16:27;;;;;;;8.32;4.32;;;8.30;48.20;;;;;;5017678;28;20032;-65
2023/04/05 00:18:55;;;;;;;7.55;3.30;;;8.40;48.30;;;;;;5030818;28;20108;-65
2023/04/05 00:21:22;;;;;;;8.95;4.18;;;8.30;48.00;;;;;;5013091;28;20427;-65
2023/04/05 00:23:50;;;;;;;7.28;3.15;;;8.40;48.00;;;;;;5034614;28;20041;-65
2023/04/05 00:26:16;;;;;;;8.68;3.88;;;8.30;48.00;;;;;;5046128;28;20090;-65
2023/04/05 00:28:47;;;;;;;8.63;3.70;;;8.30;48.10;;;;;;5040127;28;20382;-65
2023/04/05 00:31:13;;;;;;;7.53;3.70;;;8.30;48.30;;;;;;5043643;28;20033;-65
2023/04/05 00:33:39;;;;;;;6.90;3.50;;;8.20;48.50;;;;;;5044812;28;20034;-65
2023/04/05 00:36:13;;;;;;;9.43;3.72;;;8.20;48.60;;;;;;5040842;28;20027;-65
2023/04/05 00:38:40;;;;;;;9.95;4.20;;;8.20;48.70;;;;;;5043457;28;20032;-65
2023/04/05 00:41:06;;;;;;;7.63;4.00;;;8.10;48.70;;;;;;5029085;28;20108;-65
2023/04/05 00:43:33;;;;;;;8.25;3.45;;;8.10;48.90;;;;;;5038832;28;20115;-65
2023/04/05 00:46:00;;;;;;;9.82;4.15;;;8.10;49.10;;;;;;5037446;28;20045;-65
2023/04/05 00:48:27;;;;;;;7.45;3.72;;;8.10;49.80;;;;;;5043985;28;20072;-65
2023/04/05 00:50:53;;;;;;;9.70;4.30;;;8.00;49.20;;;;;;5029014;28;20041;-66
2023/04/05 00:53:20;;;;;;;10.40;4.43;;;8.00;49.30;;;;;;5033084;28;20025;-66
2023/04/05 00:55:47;;;;;;;8.00;3.88;;;8.00;49.30;;;;;;5032697;28;20021;-65
2023/04/05 00:58:17;;;;;;;9.38;3.72;;;7.90;49.30;;;;;;5032145;28;20109;-65
2023/04/05 01:01:06;;;;;;;9.70;4.57;;;7.90;49.30;;;;;;5029675;28;20477;-65
2023/04/05 01:03:34;;;;;;;9.10;4.10;;;7.90;49.40;;;;;;5040400;28;20526;-65
2023/04/05 01:06:09;;;;;;;7.90;3.70;;;7.90;49.50;;;;;;5033560;28;20442;-65
2023/04/05 01:09:05;;;;;;;9.98;4.53;;;7.90;49.60;;;;;;5045162;28;20374;-65
2023/04/05 01:11:34;;;;;;;9.85;4.10;;;7.80;49.80;;;;;;5043975;28;20033;-65
2023/04/05 01:14:00;;;;;;;8.25;3.45;;;7.80;49.90;;;;;;5035243;28;20086;-65
2023/04/05 01:16:27;;;;;;;10.30;4.32;;;7.70;50.00;;;;;;5040884;28;20103;-65
2023/04/05 01:18:57;;;;;;;9.38;4.30;;;7.70;50.20;;;;;;5045908;28;20474;-65
2023/04/05 01:21:53;;;;;;;9.25;3.78;;;7.70;50.20;;;;;;5032628;28;20144;-65
2023/04/05 01:24:45;;;;;;;7.15;3.75;;;7.70;50.30;;;;;;5034815;28;20060;-65
2023/04/05 01:27:33;;;;;;;7.57;3.75;;;7.60;50.40;;;;;;5039518;28;20036;-65
2023/04/05 01:30:10;;;;;;;7.53;3.65;;;7.60;50.40;;;;;;5006349;28;20026;-65
2023/04/05 01:32:51;;;;;;;8.73;4.25;;;7.60;50.50;;;;;;5049295;28;20079;-65
2023/04/05 01:35:37;;;;;;;10.20;4.38;;;7.60;50.60;;;;;;5033219;28;20060;-65
2023/04/05 01:38:06;;;;;;;9.05;4.60;;;7.60;50.80;;;;;;5046601;28;20039;-65
2023/04/05 01:40:34;;;;;;;8.70;3.85;;;7.50;50.80;;;;;;5033811;28;20110;-65
2023/04/05 01:43:01;;;;;;;10.02;4.57;;;7.50;50.80;;;;;;5051772;28;20322;-65
2023/04/05 01:45:28;;;;;;;8.98;4.38;;;7.50;50.80;;;;;;5026970;28;20038;-65
2023/04/05 01:47:53;;;;;;;8.70;4.00;;;7.50;50.90;;;;;;5048577;28;20052;-65
2023/04/05 01:50:19;;;;;;;11.00;4.38;;;7.40;50.90;;;;;;5034642;28;20029;-65
2023/04/05 01:52:45;;;;;;;7.38;3.83;;;7.40;51.00;;;;;;5035073;28;20536;-65
2023/04/05 01:55:11;;;;;;;11.35;4.65;;;7.40;51.20;;;;;;5033471;28;20014;-65
2023/04/05 01:57:37;;;;;;;8.60;4.13;;;7.40;51.30;;;;;;5035318;28;20410;-65
2023/04/05 02:00:04;;;;;;;11.10;4.50;;;7.30;51.40;;;;;;5038219;28;20065;-65
2023/04/05 02:02:38;;;;;;;9.90;4.68;;;7.30;51.50;;;;;;5049205;28;20045;-65
2023/04/05 02:05:04;;;;;;;9.63;4.45;;;7.20;51.60;;;;;;5033677;28;20358;-65
2023/04/05 02:07:30;;;;;;;9.43;4.22;;;7.20;51.70;;;;;;5018974;28;20156;-65
2023/04/05 02:09:56;;;;;;;9.20;4.32;;;7.20;51.80;;;;;;5036017;28;20477;-65
2023/04/05 02:12:21;;;;;;;9.32;3.95;;;7.20;51.90;;;;;;5048894;28;20021;-65
2023/04/05 02:14:47;;;;;;;9.55;4.50;;;7.20;52.00;;;;;;5045530;28;20017;-65
2023/04/05 02:17:13;;;;;;;8.60;4.30;;;7.10;52.10;;;;;;5018215;28;20029;-65
2023/04/05 02:19:44;;;;;;;9.48;4.25;;;7.10;52.10;;;;;;5038119;28;20116;-65
2023/04/05 02:22:10;;;;;;;;;;;7.10;52.20;;;;;;5048551;28;20025;-65
2023/04/05 02:24:36;;;;;;;10.45;4.07;;;7.10;52.10;;;;;;5027307;28;19916;-65
2023/04/05 02:27:03;;;;;;;9.48;4.00;;;7.00;52.20;;;;;;5041521;28;20034;-65
2023/04/05 02:29:30;;;;;;;7.60;3.97;;;7.00;52.20;;;;;;5038573;28;20033;-65
2023/04/05 02:31:56;;;;;;;10.32;4.95;;;7.00;52.30;;;;;;5026285;28;20075;-65
2023/04/05 02:34:22;;;;;;;7.68;3.88;;;7.00;52.40;;;;;;5043177;28;20031;-65
2023/04/05 02:36:51;;;;;;;8.85;4.47;;;7.00;52.40;;;;;;5042720;28;20097;-65
2023/04/05 02:39:17;;;;;;;10.80;5.20;;;7.00;52.50;;;;;;5037847;28;20035;-65
2023/04/05 02:41:45;;;;;;;8.07;4.28;;;7.00;52.60;;;;;;5021639;28;20462;-65
2023/04/05 02:44:11;;;;;;;13.20;4.55;;;7.00;52.50;;;;;;5040923;28;20347;-65
2023/04/05 02:46:37;;;;;;;13.15;5.00;;;6.90;52.40;;;;;;5023656;28;20025;-65
2023/04/05 02:49:05;;;;;;;10.05;4.78;;;7.00;52.50;;;;;;5049369;28;20047;-65
2023/04/05 02:51:33;;;;;;;9.73;4.68;;;6.90;52.60;;;;;;5041113;28;20405;-65
2023/04/05 02:54:02;;;;;;;10.68;4.30;;;6.90;52.80;;;;;;5042590;28;20041;-64
2023/04/05 02:56:29;;;;;;;8.68;4.68;;;6.90;52.90;;;;;;5039676;28;20057;-64
2023/04/05 02:58:57;;;;;;;8.60;3.95;;;6.80;52.90;;;;;;5045566;28;20430;-64
2023/04/05 03:01:24;;;;;;;11.40;5.05;;;6.70;53.10;;;;;;5044301;28;20032;-64
2023/04/05 03:03:50;;;;;;;9.35;4.40;;;6.70;53.20;;;;;;5036723;28;20116;-64
2023/04/05 03:06:16;;;;;;;9.07;4.05;;;6.70;53.20;;;;;;5022024;28;20036;-64
2023/04/05 03:08:48;;;;;;;12.50;4.80;;;6.70;53.30;;;;;;5045161;28;20044;-64
2023/04/05 03:11:16;;;;;;;8.68;4.43;;;6.70;53.40;;;;;;5025205;28;20025;-64
2023/04/05 03:13:46;;;;;;;10.38;4.95;;;6.70;53.40;;;;;;5015667;28;20069;-64
2023/04/05 03:16:23;;;;;;;9.35;4.57;;;6.70;53.50;;;;;;5037932;28;20410;-65
2023/04/05 03:18:49;;;;;;;9.68;4.45;;;6.70;53.50;;;;;;5045275;28;20040;-64
2023/04/05 03:21:16;;;;;;;12.23;4.82;;;6.60;53.60;;;;;;5046558;28;20021;-64
2023/04/05 03:23:52;;;;;;;8.90;4.63;;;6.60;53.70;;;;;;5035184;28;20068;-64
2023/04/05 03:26:24;;;;;;;11.43;4.78;;;6.60;53.70;;;;;;5040461;28;20065;-64
2023/04/05 03:28:52;;;;;;;8.77;4.40;;;6.60;53.70;;;;;;5043933;28;20025;-65
2023/04/05 03:31:23;;;;;;;9.98;5.38;;;6.60;53.80;;;;;;5024722;28;20034;-65
2023/04/05 03:33:49;;;;;;;9.38;4.65;;;6.60;53.90;;;;;;5038755;28;20501;-64
2023/04/05 03:36:16;;;;;;;10.35;4.80;;;6.60;53.80;;;;;;5042067;28;20124;-64
2023/04/05 03:38:44;;;;;;;11.23;4.97;;;6.60;53.70;;;;;;5016911;28;20125;-64
2023/04/05 03:41:15;;;;;;;9.32;4.95;;;6.60;53.80;;;;;;5039014;28;20025;-64
2023/04/05 03:43:41;;;;;;;9.85;4.85;;;6.60;53.90;;;;;;5035919;28;20029;-65
2023/04/05 03:46:07;;;;;;;10.32;4.75;;;6.60;54.10;;;;;;5040996;28;20020;-64
2023/04/05 03:48:32;;;;;;;14.40;5.00;;;6.50;54.20;;;;;;5050461;28;20070;-64
2023/04/05 03:50:58;;;;;;;11.45;5.13;;;6.50;54.20;;;;;;5048662;28;20053;-65
2023/04/05 03:53:25;;;;;;;10.10;4.60;;;6.50;54.20;;;;;;5032699;28;20510;-65
2023/04/05 03:55:55;;;;;;;9.35;4.63;;;6.50;54.30;;;;;;5033715;28;20102;-65
2023/04/05 03:58:57;;;;;;;11.02;5.03;;;6.50;54.30;;;;;;5037772;28;20051;-65
2023/04/05 04:01:26;;;;;;;11.88;5.03;;;6.40;54.30;;;;;;5049780;28;20038;-65
2023/04/05 04:03:52;;;;;;;9.30;5.05;;;6.40;54.30;;;;;;5033486;28;20407;-64
2023/04/05 04:06:18;;;;;;;10.02;5.15;;;6.40;54.30;;;;;;5034151;28;20029;-65
2023/04/05 04:08:44;;;;;;;10.43;5.35;;;6.40;54.40;;;;;;5043320;28;20025;-64
2023/04/05 04:11:10;;;;;;;10.60;5.35;;;6.40;54.60;;;;;;5043401;28;20057;-64
2023/04/05 04:13:39;;;;;;;8.68;4.88;;;6.30;54.70;;;;;;5034098;28;20060;-64
2023/04/05 04:16:11;;;;;;;9.98;5.30;;;6.30;54.80;;;;;;5033799;28;20473;-64
2023/04/05 04:18:53;;;;;;;9.43;4.63;;;6.30;54.80;;;;;;5030839;28;20022;-64
2023/04/05 04:21:38;;;;;;;10.27;4.90;;;6.30;54.70;;;;;;5029731;28;20399;-64
2023/04/05 04:24:25;;;;;;;9.68;4.68;;;6.30;54.70;;;;;;5032088;28;20502;-66
2023/04/05 04:27:09;;;;;;;8.32;4.95;;;6.20;54.80;;;;;;5032166;28;20032;-64
2023/04/05 04:29:45;;;;;;;9.77;5.05;;;6.20;55.00;;;;;;5035544;28;20043;-64
2023/04/05 04:32:50;;;;;;;9.55;4.95;;;6.20;55.00;;;;;;5020319;28;20478;-63
2023/04/05 04:35:37;;;;;;;10.77;5.28;;;6.20;55.00;;;;;;5029124;28;20088;-64
2023/04/05 04:38:19;;;;;;;9.05;4.55;;;6.20;55.00;;;;;;5021162;28;20030;-64
2023/04/05 04:41:10;;;;;;;9.88;5.15;;;6.10;55.20;;;;;;5040769;28;20041;-64
2023/04/05 04:43:53;;;;;;;8.63;4.72;;;6.10;55.30;;;;;;5016919;28;20044;-64
2023/04/05 04:46:41;;;;;;;9.93;4.75;;;6.00;55.40;;;;;;5016606;28;20120;-64
2023/04/05 04:49:16;;;;;;;9.30;5.20;;;6.00;55.50;;;;;;5022063;28;20177;-65
2023/04/05 04:51:45;;;;;;;10.13;5.43;;;6.00;55.60;;;;;;5038144;28;20123;-64
2023/04/05 04:54:11;;;;;;;11.32;5.68;;;6.00;55.80;;;;;;5041797;28;20056;-65
2023/04/05 04:56:37;;;;;;;10.20;4.90;;;5.90;55.80;;;;;;5048511;28;20068;-64
2023/04/05 04:59:03;;;;;;;10.30;5.40;;;5.90;55.90;;;;;;5034437;28;20049;-65
2023/04/05 05:01:29;;;;;;;11.48;5.85;;;5.90;56.10;;;;;;5030311;28;20418;-64
2023/04/05 05:03:55;;;;;;;13.63;5.93;;;5.90;56.20;;;;;;5045449;28;20041;-64
2023/04/05 05:06:34;;;;;;;10.07;5.80;;;5.90;56.20;;;;;;5046583;28;20033;-64
2023/04/05 05:09:00;;;;;;;10.90;5.50;;;5.90;56.30;;;;;;5035159;28;20030;-64
2023/04/05 05:11:27;;;;;;;9.20;5.18;;;5.90;56.40;;;;;;5034953;28;20026;-64
2023/04/05 05:13:53;;;;;;;8.60;4.90;;;5.80;56.30;;;;;;5045838;28;20025;-64
2023/04/05 05:16:22;;;;;;;11.10;5.72;;;5.90;56.40;;;;;;5036656;28;20194;-64
2023/04/05 05:18:51;;;;;;;11.13;5.40;;;5.90;56.40;;;;;;5036677;28;20100;-64
2023/04/05 05:21:17;;;;;;;10.05;4.82;;;5.90;56.50;;;;;;5045292;28;20028;-64
2023/04/05 05:23:50;;;;;;;10.85;5.47;;;5.90;56.50;;;;;;5053330;28;20080;-64
2023/04/05 05:26:16;;;;;;;13.52;5.57;;;5.90;56.50;;;;;;5043568;28;20162;-64
2023/04/05 05:28:42;;;;;;;9.20;5.07;;;5.90;56.40;;;;;;5053766;28;20119;-63
2023/04/05 05:31:08;;;;;;;12.93;5.63;;;5.90;56.50;;;;;;5035450;28;20443;-63
2023/04/05 05:33:35;;;;;;;10.55;5.43;;;6.00;56.50;;;;;;5037843;28;20434;-64
2023/04/05 05:36:02;;;;;;;10.30;5.57;;;6.00;56.40;;;;;;5046450;28;20036;-63
2023/04/05 05:38:28;;;;;;;9.75;5.18;;;6.00;56.40;;;;;;5057144;28;20034;-64
2023/04/05 05:40:56;;;;;;;9.57;5.40;;;6.00;56.40;;;;;;5042036;28;20044;-64
2023/04/05 05:43:21;;;;;;;9.55;5.43;;;6.00;56.30;;;;;;5043621;28;20044;-64
2023/04/05 05:45:48;;;;;;;9.18;4.90;;;6.00;56.40;;;;;;5045162;28;20052;-64
2023/04/05 05:48:14;;;;;;;10.93;5.25;;;6.10;56.50;;;;;;5053171;28;20036;-64
2023/04/05 05:50:40;;;;;;;12.13;6.10;;;6.10;56.40;;;;;;5043505;28;20037;-64
2023/04/05 05:53:06;;;;;;;11.55;5.82;;;6.10;56.50;;;;;;5056874;28;20031;-64
2023/04/05 05:55:32;;;;;;;10.32;5.60;;;6.10;56.60;;;;;;5048293;28;20395;-64
2023/04/05 05:57:58;;;;;;;10.48;5.45;;;6.10;56.60;;;;;;5057528;28;20429;-64
2023/04/05 06:00:24;;;;;;;10.95;5.97;;;6.20;56.50;;;;;;5032170;28;20116;-64
2023/04/05 06:02:51;;;;;;;11.02;6.05;;;6.20;56.50;;;;;;5038778;28;20129;-64
2023/04/05 06:05:17;;;;;;;11.70;5.15;;;6.20;56.30;;;;;;5039927;28;20033;-63
2023/04/05 06:07:43;;;;;;;10.25;5.85;;;6.30;56.10;;;;;;5056656;28;20086;-64
2023/04/05 06:10:09;;;;;;;11.73;5.85;;;6.40;55.90;;;;;;5038149;28;20354;-64
2023/04/05 06:12:35;;;;;;;10.02;5.32;;;6.50;55.70;;;;;;5040382;28;20029;-63
2023/04/05 06:15:01;;;;;;;10.95;6.35;;;6.70;55.50;;;;;;5037398;28;20083;-63
2023/04/05 06:17:27;;;;;;;11.10;5.88;;;6.90;55.20;;;;;;5042466;28;20102;-63
2023/04/05 06:19:54;;;;;;;9.25;5.57;;;7.00;54.90;;;;;;5037103;28;20025;-64
2023/04/05 06:22:21;;;;;;;11.25;5.45;;;7.30;54.60;;;;;;5028693;28;20469;-63
2023/04/05 06:24:47;;;;;;;9.80;5.82;;;7.40;54.20;;;;;;5040420;28;20082;-64
2023/04/05 06:27:13;;;;;;;12.73;6.22;;;7.70;53.80;;;;;;5020054;28;20185;-65
2023/04/05 06:29:39;;;;;;;10.77;5.97;;;8.20;53.20;;;;;;5040127;28;20037;-66
2023/04/05 06:32:05;;;;;;;10.95;6.57;;;8.70;52.50;;;;;;5042131;28;20032;-63
2023/04/05 06:34:31;;;;;;;8.90;5.30;;;9.30;51.60;;;;;;5041316;28;20029;-64
2023/04/05 06:36:57;;;;;;;8.95;5.53;;;9.90;50.60;;;;;;5042560;28;20079;-64
2023/04/05 06:39:23;;;;;;;9.45;4.85;;;10.60;49.70;;;;;;5051452;28;20048;-64
2023/04/05 06:41:50;;;;;;;8.63;4.85;;;11.10;48.80;;;;;;5033799;28;20029;-64
2023/04/05 06:44:22;;;;;;;12.25;5.70;;;11.50;47.90;;;;;;5035660;28;20026;-64
2023/04/05 06:46:48;;;;;;;11.30;5.22;;;11.90;47.30;;;;;;5036122;28;20451;-64
2023/04/05 06:49:14;;;;;;;10.07;4.78;;;12.20;46.70;;;;;;5044136;28;20029;-65
2023/04/05 06:51:40;;;;;;;9.45;5.35;;;12.30;46.30;;;;;;5015363;28;20110;-63
2023/04/05 06:54:05;;;;;;;10.10;5.70;;;12.30;46.20;;;;;;5049602;28;20029;-64
2023/04/05 06:56:31;;;;;;;9.02;5.13;;;12.00;46.30;;;;;;5038442;28;20368;-64
2023/04/05 06:58:58;;;;;;;9.85;5.75;;;11.80;46.60;;;;;;5042265;28;20060;-63
2023/04/05 07:01:25;;;;;;;11.05;4.63;;;11.60;46.80;;;;;;5034574;28;20095;-64
2023/04/05 07:03:50;;;;;;;7.80;4.68;;;11.40;47.00;;;;;;5051530;28;20029;-65
2023/04/05 07:06:16;;;;;;;10.60;5.35;;;11.30;47.10;;;;;;5034048;28;20025;-65
2023/04/05 07:08:42;;;;;;;8.90;4.97;;;11.20;47.20;;;;;;5039912;28;20097;-65
2023/04/05 07:11:08;;;;;;;9.85;4.93;;;11.20;47.20;;;;;;5033345;28;20091;-65
2023/04/05 07:13:33;;;;;;;10.32;5.50;;;11.20;47.20;;;;;;5035970;28;20049;-64
2023/04/05 07:16:01;;;;;;;8.70;5.32;;;11.20;47.00;;;;;;5036793;28;20021;-64
2023/04/05 07:18:28;;;;;;;9.30;5.25;;;11.20;46.80;;;;;;5035952;28;20026;-65
2023/04/05 07:20:59;;;;;;;10.10;5.63;;;11.30;46.70;;;;;;5036841;28;20025;-65
2023/04/05 07:23:26;;;;;;;10.15;4.80;;;11.40;46.40;;;;;;5016258;28;20032;-65
2023/04/05 07:25:53;;;;;;;7.63;4.13;;;11.40;46.20;;;;;;5033216;28;20522;-65
2023/04/05 07:28:19;;;;;;;9.38;4.95;;;11.50;46.00;;;;;;5033277;28;20037;-66
2023/04/05 07:30:45;;;;;;;9.95;5.13;;;11.50;45.70;;;;;;5033832;28;20035;-65
2023/04/05 07:33:11;;;;;;;9.20;4.47;;;11.60;45.60;;;;;;5032231;28;20013;-65
2023/04/05 07:35:36;;;;;;;8.85;4.85;;;11.80;45.50;;;;;;5034194;28;20133;-65
2023/04/05 07:38:02;;;;;;;8.23;4.68;;;11.80;45.30;;;;;;5032475;28;20140;-65
2023/04/05 07:40:28;;;;;;;7.60;4.18;;;12.00;45.10;;;;;;5034250;28;20136;-65
2023/04/05 07:42:54;;;;;;;9.60;4.78;;;12.10;44.80;;;;;;5034092;28;20120;-65
2023/04/05 07:45:20;;;;;;;9.15;5.13;;;12.20;44.50;;;;;;5028861;28;20064;-65
2023/04/05 07:47:46;;;;;;;11.02;5.22;;;12.30;44.20;;;;;;5032998;28;20424;-65
2023/04/05 07:50:13;;;;;;;8.45;4.53;;;12.40;44.00;;;;;;5032829;28;20041;-65
2023/04/05 07:52:40;;;;;;;8.50;4.47;;;12.60;44.40;;;;;;5018548;28;20057;-63
2023/04/05 07:55:08;;;;;;;7.55;4.35;;;12.70;43.60;;;;;;5014889;28;20018;-64
2023/04/05 07:57:34;;;;;;;9.65;5.03;;;12.80;43.30;;;;;;5016064;28;20466;-65
2023/04/05 08:00:00;;;;;;;11.40;4.20;;;13.00;43.20;;;;;;5016362;28;20079;-65
2023/04/05 08:02:26;;;;;;;8.02;4.75;;;13.10;43.00;;;;;;5033265;28;20121;-66
2023/04/05 08:04:53;;;;;;;8.43;4.50;;;13.20;42.80;;;;;;5037302;28;20057;-65
2023/04/05 08:07:18;;;;;;;10.40;5.13;;;13.30;42.60;;;;;;5037118;28;20028;-64
2023/04/05 08:09:45;;;;;;;10.57;5.05;;;13.40;42.50;;;;;;5044747;28;20350;-64
2023/04/05 08:12:11;;;;;;;8.73;4.28;;;13.60;43.00;;;;;;5052978;28;20028;-64
2023/04/05 08:14:37;;;;;;;9.55;4.65;;;13.70;42.10;;;;;;5042446;28;20091;-64
2023/04/05 08:17:03;;;;;;;9.30;4.38;;;13.80;41.90;;;;;;5040793;28;20052;-64
2023/04/05 08:19:28;;;;;;;9.90;4.60;;;13.90;41.60;;;;;;5045911;28;20040;-64
2023/04/05 08:21:54;;;;;;;9.18;4.15;;;14.00;41.40;;;;;;5041628;28;20029;-64
2023/04/05 08:24:20;;;;;;;7.40;4.00;;;14.10;41.30;;;;;;5039152;28;20044;-64
2023/04/05 08:26:47;;;;;;;10.52;4.63;;;14.20;41.20;;;;;;5010859;28;20052;-64
2023/04/05 08:29:13;;;;;;;8.07;4.35;;;14.30;41.00;;;;;;5030186;28;20112;-64
2023/04/05 08:31:39;;;;;;;8.90;4.60;;;14.40;40.90;;;;;;5053310;28;20473;-64
2023/04/05 08:34:07;;;;;;;11.77;4.82;;;14.40;40.70;;;;;;5051646;28;20069;-65
2023/04/05 08:36:33;;;;;;;9.05;4.38;;;14.50;40.50;;;;;;5028022;28;20040;-65
2023/04/05 08:38:58;;;;;;;8.35;4.85;;;14.60;40.40;;;;;;5053195;28;20028;-65
2023/04/05 08:41:28;;;;;;;8.18;4.47;;;14.70;40.10;;;;;;5053302;28;20481;-65
2023/04/05 08:44:04;;;;;;;9.85;4.18;;;14.80;39.80;;;;;;5052780;28;20033;-64
2023/04/05 08:46:31;;;;;;;7.85;3.92;;;14.90;39.30;;;;;;5033071;28;20327;-64
2023/04/05 08:48:59;;;;;;;7.70;3.90;;;14.90;39.40;;;;;;5045462;28;20517;-65
2023/04/05 08:51:25;;;;;;;6.97;3.90;;;14.90;39.20;;;;;;5052805;28;20045;-65
2023/04/05 08:53:52;;;;;;;7.10;3.70;;;15.00;38.90;;;;;;5053206;28;20025;-65
2023/04/05 08:56:40;;;;;;;9.70;3.60;;;15.00;38.70;;;;;;5037716;28;20064;-65
2023/04/05 08:59:10;;;;;;;8.75;3.85;;;15.10;38.50;;;;;;5053583;28;20041;-65
2023/04/05 09:01:37;;;;;;;7.53;3.67;;;15.20;38.30;;;;;;5030983;28;20033;-65
2023/04/05 09:04:11;;;;;;;7.55;3.50;;;15.20;38.40;;;;;;5041190;28;20478;-66
2023/04/05 09:06:37;;;;;;;8.00;3.78;;;15.40;38.20;;;;;;5028232;28;20184;-65
2023/04/05 09:09:06;;;;;;;7.75;3.55;;;15.40;38.10;;;;;;5036498;28;20108;-66
2023/04/05 09:11:33;;;;;;;8.55;4.00;;;15.50;37.80;;;;;;5044037;28;20033;-66
2023/04/05 09:14:03;;;;;;;8.18;3.60;;;15.60;37.60;;;;;;5047862;28;20033;-66
2023/04/05 09:16:30;;;;;;;8.93;3.92;;;15.60;37.30;;;;;;5052244;28;20450;-66
2023/04/05 09:18:55;;;;;;;7.38;3.35;;;15.60;37.20;;;;;;5050820;28;20402;-66
2023/04/05 09:21:22;;;;;;;7.43;3.58;;;15.70;36.90;;;;;;5042124;28;20121;-66
2023/04/05 09:23:55;;;;;;;7.68;3.92;;;15.70;36.60;;;;;;5042391;28;20332;-66
2023/04/05 09:26:24;;;;;;;7.57;3.63;;;15.70;36.30;;;;;;5043879;28;20111;-65
2023/04/05 09:28:57;;;;;;;9.38;3.67;;;15.80;36.30;;;;;;5045827;28;20032;-65
2023/04/05 09:31:33;;;;;;;8.90;4.10;;;15.70;36.30;;;;;;5031426;28;20037;-65
2023/04/05 09:34:02;;;;;;;8.43;3.33;;;15.80;36.10;;;;;;5036891;28;20076;-64
2023/04/05 09:36:31;;;;;;;6.47;3.00;;;15.90;36.00;;;;;;5035115;28;20030;-65
2023/04/05 09:39:08;;;;;;;7.43;3.55;;;15.90;35.90;;;;;;5036659;28;20410;-65
2023/04/05 09:41:35;;;;;;;7.80;3.40;;;16.00;35.70;;;;;;5042872;28;20132;-65
2023/04/05 09:44:01;;;;;;;6.47;3.58;;;16.00;35.80;;;;;;5038292;28;20026;-65
2023/04/05 09:46:36;;;;;;;12.00;3.58;;;16.00;35.70;;;;;;5037984;28;20373;-65
2023/04/05 09:49:02;;;;;;;8.13;3.45;;;16.10;35.60;;;;;;5034263;28;20025;-65
2023/04/05 09:51:33;;;;;;;8.23;3.75;;;16.10;35.60;;;;;;5029485;28;20048;-65
2023/04/05 09:54:00;;;;;;;7.78;3.85;;;16.20;35.30;;;;;;5027362;28;20061;-64
2023/04/05 09:56:28;;;;;;;7.70;3.53;;;16.20;35.40;;;;;;5039826;28;20092;-65
2023/04/05 09:59:08;;;;;;;9.23;4.30;;;16.20;35.40;;;;;;5048570;28;20028;-66
2023/04/05 10:01:34;;;;;;;8.65;3.50;;;16.40;35.10;;;;;;5056670;28;20098;-65
2023/04/05 10:04:00;;;;;;;7.25;3.45;;;16.30;35.00;;;;;;5039928;28;20455;-66
2023/04/05 10:06:39;;;;;;;7.43;3.58;;;16.30;34.90;;;;;;5045817;28;20093;-65
2023/04/05 10:09:07;;;;;;;6.72;3.22;;;16.40;34.80;;;;;;5042335;28;20120;-66
2023/04/05 10:11:35;;;;;;;8.15;3.45;;;16.40;34.90;;;;;;5048235;28;20033;-65
2023/04/05 10:14:02;;;;;;;7.07;3.65;;;16.50;34.60;;;;;;5032494;28;20017;-64
2023/04/05 10:16:32;;;;;;;7.03;3.17;;;16.50;34.30;;;;;;5036344;28;20125;-64
2023/04/05 10:18:57;;;;;;;7.13;3.80;;;16.50;34.30;;;;;;5046205;28;20025;-64
2023/04/05 10:21:28;;;;;;;8.05;3.75;;;16.60;34.10;;;;;;5038929;28;20131;-64
2023/04/05 10:24:08;;;;;;;9.05;3.78;;;16.50;34.10;;;;;;5042657;28;20029;-65
2023/04/05 10:26:53;;;;;;;7.60;3.38;;;16.50;34.10;;;;;;5045182;28;20038;-64
2023/04/05 10:29:26;;;;;;;6.63;3.35;;;16.50;34.30;;;;;;5034858;28;20056;-64
2023/04/05 10:32:06;;;;;;;6.35;3.33;;;16.50;34.20;;;;;;5027242;28;20392;-64
2023/04/05 10:34:44;;;;;;;6.95;3.10;;;16.60;33.90;;;;;;5038759;28;20053;-64
2023/04/05 10:37:25;;;;;;;5.93;3.17;;;16.60;33.90;;;;;;5020895;28;20033;-65
2023/04/05 10:39:51;;;;;;;8.02;4.10;;;16.50;34.00;;;;;;5036361;28;20101;-64
2023/04/05 10:42:24;;;;;;;7.65;3.75;;;16.50;34.20;;;;;;5050690;28;20056;-64
2023/04/05 10:45:03;;;;;;;7.00;3.00;;;16.50;34.10;;;;;;5041812;28;20041;-64
2023/04/05 10:47:35;;;;;;;6.90;3.50;;;16.60;33.90;;;;;;5039739;28;20025;-64
2023/04/05 10:50:03;;;;;;;8.05;4.15;;;16.60;33.90;;;;;;5038039;28;20498;-64
2023/04/05 10:52:29;;;;;;;8.30;4.03;;;16.60;33.90;;;;;;5034916;28;20061;-63
2023/04/05 10:54:58;;;;;;;8.85;4.38;;;16.60;33.90;;;;;;5034717;28;20025;-63
2023/04/05 10:57:25;;;;;;;6.72;3.45;;;16.50;33.70;;;;;;5031657;28;20060;-64
2023/04/05 10:59:51;;;;;;;7.35;3.38;;;16.60;33.40;;;;;;5028491;28;20358;-64
2023/04/05 11:02:18;;;;;;;7.30;3.67;;;16.60;33.40;;;;;;5034628;28;20037;-64
2023/04/05 11:04:44;;;;;;;7.10;3.47;;;16.70;33.50;;;;;;5032276;28;20030;-63
2023/04/05 11:07:15;;;;;;;7.78;3.90;;;16.70;33.50;;;;;;5029169;28;20087;-64
2023/04/05 11:10:01;;;;;;;8.30;3.67;;;16.70;33.50;;;;;;5026766;28;20434;-63
2023/04/05 11:12:47;;;;;;;7.78;3.42;;;16.70;33.30;;;;;;5036234;28;20094;-63
2023/04/05 11:15:28;;;;;;;8.60;3.42;;;16.60;33.50;;;;;;5041764;28;20209;-63
2023/04/05 11:18:19;;;;;;;7.43;3.65;;;16.50;33.50;;;;;;5051020;28;20043;-65
2023/04/05 11:20:51;;;;;;;8.10;3.80;;;16.70;33.60;;;;;;5040250;28;20079;-62
2023/04/05 11:23:19;;;;;;;8.40;3.75;;;16.60;33.50;;;;;;5042068;28;20013;-63
2023/04/05 11:26:02;;;;;;;7.88;3.40;;;16.70;33.70;;;;;;5032672;28;20032;-62
2023/04/05 11:28:30;;;;;;;7.57;3.42;;;16.70;33.50;;;;;;5041627;28;20053;-62
2023/04/05 11:30:57;;;;;;;7.00;3.60;;;16.60;33.50;;;;;;5031472;28;20092;-62
2023/04/05 11:34:16;;;;;;;7.75;3.85;;;16.60;33.20;;;;;;5032984;28;20049;-62
2023/04/05 11:36:46;;;;;;;9.00;3.78;;;16.60;33.00;;;;;;5024372;28;20442;-62
2023/04/05 11:39:24;;;;;;;7.00;3.28;;;16.60;33.00;;;;;;5035268;28;20025;-63
2023/04/05 11:41:59;;;;;;;8.02;3.33;;;16.60;32.80;;;;;;5034512;28;20113;-62
2023/04/05 11:44:25;;;;;;;7.32;3.85;;;16.60;33.00;;;;;;5030083;28;20075;-63
2023/04/05 11:46:53;;;;;;;7.78;3.50;;;16.60;33.30;;;;;;5032277;28;20082;-63
2023/04/05 11:49:23;;;;;;;6.72;3.40;;;16.60;33.50;;;;;;5035496;28;20040;-63
2023/04/05 11:51:53;;;;;;;7.55;3.83;;;16.70;33.30;;;;;;5039438;28;20087;-62
2023/04/05 11:54:33;;;;;;;8.82;3.70;;;16.60;33.30;;;;;;5054765;28;20036;-62
2023/04/05 11:57:00;;;;;;;9.13;4.17;;;16.50;33.50;;;;;;5046836;28;20057;-62
2023/04/05 11:59:35;;;;;;;8.43;3.88;;;16.40;33.60;;;;;;5046372;28;20294;-62
2023/04/05 12:02:04;;;;;;;9.85;4.30;;;16.20;33.50;;;;;;5054818;28;20037;-62
2023/04/05 12:04:30;;;;;;;8.38;4.00;;;16.20;33.60;;;;;;5055097;28;20032;-62
2023/04/05 12:07:17;;;;;;;7.10;4.05;;;16.10;33.90;;;;;;5049788;28;20088;-62
2023/04/05 12:10:10;;;;;;;8.00;4.25;;;16.20;34.20;;;;;;5020200;28;20395;-62
2023/04/05 12:12:40;;;;;;;8.02;4.30;;;16.10;34.00;;;;;;5052356;28;20078;-62
2023/04/05 12:15:08;;;;;;;9.07;4.65;;;16.00;34.30;;;;;;5054633;28;20035;-63
2023/04/05 12:17:43;;;;;;;8.85;4.03;;;16.00;34.40;;;;;;5049741;28;20037;-62
2023/04/05 12:20:11;;;;;;;7.95;4.05;;;16.00;34.50;;;;;;5043590;28;20068;-62
2023/04/05 12:22:38;;;;;;;8.95;4.22;;;15.90;34.50;;;;;;5054318;28;20053;-62
2023/04/05 12:25:04;;;;;;;12.40;3.97;;;15.80;34.60;;;;;;5054320;28;20059;-62
2023/04/05 12:27:30;;;;;;;7.97;4.10;;;15.80;34.70;;;;;;5053122;28;20131;-62
2023/04/05 12:30:14;;;;;;;7.93;3.55;;;15.70;34.60;;;;;;5040028;28;20346;-62
2023/04/05 12:32:41;;;;;;;7.78;3.65;;;15.70;34.30;;;;;;5054077;28;20033;-62
2023/04/05 12:35:11;;;;;;;7.35;3.92;;;15.60;34.30;;;;;;5053488;28;20079;-62
2023/04/05 12:37:39;;;;;;;7.80;3.85;;;15.60;34.40;;;;;;5053267;28;20029;-62
2023/04/05 12:40:05;;;;;;;7.90;3.65;;;15.50;34.40;;;;;;5036991;28;20361;-62
2023/04/05 12:42:35;;;;;;;8.38;3.78;;;15.40;34.30;;;;;;5053826;28;20358;-62
2023/04/05 12:45:10;;;;;;;8.80;4.03;;;15.40;34.20;;;;;;5054023;28;20027;-62
2023/04/05 12:47:56;;;;;;;7.13;3.58;;;15.30;34.30;;;;;;5053936;28;20353;-62
2023/04/05 12:50:30;;;;;;;9.35;4.93;;;15.30;34.40;;;;;;5043003;28;20021;-61
2023/04/05 12:53:00;;;;;;;7.88;4.28;;;15.20;34.50;;;;;;5052608;28;20060;-61
2023/04/05 12:55:28;;;;;;;9.93;4.53;;;15.20;34.80;;;;;;5053556;28;20469;-61
2023/04/05 12:57:58;;;;;;;8.80;4.32;;;15.10;34.80;;;;;;5054019;28;20033;-61
2023/04/05 13:00:26;;;;;;;7.63;3.63;;;15.10;35.00;;;;;;5032663;28;20481;-61
2023/04/05 13:02:56;;;;;;;8.73;3.65;;;15.00;34.90;;;;;;5046225;28;20417;-61
2023/04/05 13:05:27;;;;;;;8.25;4.07;;;15.00;34.90;;;;;;5054071;28;20445;-61